الصفحة الرئيسية
METAR-TAF:

METAR-TAF

مطار :

Santa Marta, كولومبيا

دائرة عرض: 11-08N, خط طول: 074-14W, ارتفاع: 4 متر

مراقبة الطقس الحالي

تاريخ ووقت الإصدار 14 دقيقة قبل الساعة 18:00UTC
ريح 4 عقدة من الغرب
درجة الحرارة 33°درجة مئوية
الرطوبة 59%
ضغط 1011 hPa
الرؤية 10 كم أو أكثر
غيوم قليلة على ارتفاع 2500 قدم

METAR: SKSM 041800Z 28004KT 9999 FEW025 33/24 Q1011

زمن: 13:14 (18:14 UTC)

توقعات

تاريخ ووقت الإصدار 1ساعة و 44 دقيقة قبل الساعة 16:30UTC
التوقعات صالحة من04 الساعة 18 UTC إلى 05 الساعة 18 UTC
ريح 10 عقدة من الشمال
الرؤية 10 كم أو أكثر
غيوم قليلة على ارتفاع 2500 قدم

TAF: SKSM 041630Z 0418/0518 36010KT 9999 FEW025 TX35/0420Z TN25/0510Z

أرصاد الطقس والتوقعات من أكثر من 4000 مطار (تقارير الطقس للمطار METAR والتنبؤ بالطقس بالمطارTAF).

المحطات المتاحة هي النقط الصفراء والحمراء على الخريطة.

حرك المؤشر فوق النقطة لمعرفة اسم المحطة.

ثم انقر لمعرفة أرصاد وتوقعات الطقس.

لتغيير الخارطة: اضغط على الأزرار الخضراء مع رمز الصليب الأسود للتكبير. على الزر الأخضر مع شرطة للتصغير، أو على الأسهم الخضراء للخرائط المجاورة.


METAR-TAF: